createdAt,value
2023-01-31T00:00:46.487Z,1.30
2023-01-31T00:01:46.506Z,1.60
2023-01-31T00:02:46.540Z,1.50
2023-01-31T00:03:46.507Z,1.20
2023-01-31T00:04:46.452Z,1.40
2023-01-31T00:05:46.431Z,1.60
2023-01-31T00:06:46.439Z,1.70
2023-01-31T00:07:46.423Z,1.40
2023-01-31T00:08:46.430Z,1.60
2023-01-31T00:09:46.404Z,1.60
2023-01-31T00:10:46.382Z,1.60
2023-01-31T00:11:46.375Z,1.70
2023-01-31T00:12:46.375Z,1.50
2023-01-31T00:13:46.345Z,1.50
2023-01-31T00:14:46.337Z,1.60
2023-01-31T00:15:46.344Z,1.80
2023-01-31T00:16:46.325Z,1.50
2023-01-31T00:17:46.311Z,1.80
2023-01-31T00:18:46.312Z,1.40
2023-01-31T00:19:46.288Z,1.50
2023-01-31T00:20:46.279Z,1.40
2023-01-31T00:21:46.277Z,1.50
2023-01-31T00:22:46.254Z,1.40
2023-01-31T00:23:46.254Z,1.40
2023-01-31T00:24:46.231Z,1.60
2023-01-31T00:25:46.231Z,1.40
2023-01-31T00:26:46.323Z,1.30
2023-01-31T00:27:46.209Z,1.50
2023-01-31T00:28:46.192Z,1.60
2023-01-31T00:29:46.182Z,1.30
2023-01-31T00:30:46.175Z,1.40
2023-01-31T00:31:46.237Z,1.60
2023-01-31T00:32:46.140Z,1.50
2023-01-31T00:33:46.145Z,1.50
2023-01-31T00:34:46.128Z,1.50
2023-01-31T00:35:46.131Z,1.70
2023-01-31T00:36:46.102Z,1.70
2023-01-31T00:37:46.104Z,1.50
2023-01-31T00:38:46.086Z,1.50
2023-01-31T00:39:46.079Z,1.40
2023-01-31T00:40:46.057Z,1.40
2023-01-31T00:41:46.067Z,1.50
2023-01-31T00:42:46.039Z,1.60
2023-01-31T00:43:46.044Z,1.50
2023-01-31T00:44:46.015Z,1.30
2023-01-31T00:45:46.024Z,1.40
2023-01-31T00:46:46.063Z,1.60
2023-01-31T00:47:45.988Z,1.60
2023-01-31T00:48:45.986Z,1.30
2023-01-31T00:49:45.991Z,1.50
2023-01-31T00:50:45.952Z,1.50
2023-01-31T00:51:45.960Z,1.10
2023-01-31T00:52:45.973Z,1.70
2023-01-31T00:53:45.933Z,1.40
2023-01-31T00:54:45.920Z,1.40
2023-01-31T00:55:45.904Z,1.30
2023-01-31T00:56:45.901Z,1.40
2023-01-31T00:57:45.882Z,1.60
2023-01-31T00:58:45.876Z,1.50
2023-01-31T00:59:45.866Z,1.40
2023-01-31T01:00:45.925Z,1.30
2023-01-31T01:01:45.876Z,1.30
2023-01-31T01:02:45.829Z,1.50
2023-01-31T01:03:45.875Z,1.60
2023-01-31T01:04:45.841Z,1.40
2023-01-31T01:05:45.792Z,1.60
2023-01-31T01:06:45.795Z,1.50
2023-01-31T01:07:45.790Z,1.40
2023-01-31T01:08:45.762Z,1.30
2023-01-31T01:09:45.757Z,1.40
2023-01-31T01:10:45.750Z,1.50
2023-01-31T01:11:45.738Z,1.50
2023-01-31T01:12:45.731Z,1.40
2023-01-31T01:13:45.725Z,1.60
2023-01-31T01:14:45.724Z,1.40
2023-01-31T01:15:45.706Z,1.30
2023-01-31T01:16:45.838Z,1.40
2023-01-31T01:17:45.675Z,1.50
2023-01-31T01:18:45.663Z,1.80
2023-01-31T01:19:45.649Z,1.80
2023-01-31T01:20:45.639Z,1.80
2023-01-31T01:21:45.640Z,1.40
2023-01-31T01:22:45.617Z,1.80
2023-01-31T01:23:45.607Z,1.50
2023-01-31T01:24:45.592Z,1.40
2023-01-31T01:25:45.590Z,1.50
2023-01-31T01:26:45.679Z,1.50
2023-01-31T01:27:45.571Z,1.70
2023-01-31T01:28:45.560Z,1.60
2023-01-31T01:29:45.549Z,1.50
2023-01-31T01:30:45.545Z,1.50
2023-01-31T01:31:45.725Z,1.40
2023-01-31T01:32:45.510Z,1.40
2023-01-31T01:33:45.513Z,1.60
2023-01-31T01:34:45.492Z,1.60
2023-01-31T01:35:45.481Z,1.40
2023-01-31T01:36:47.885Z,1.60
2023-01-31T01:37:45.470Z,1.40
2023-01-31T01:38:45.449Z,1.50
2023-01-31T01:39:45.439Z,1.50
2023-01-31T01:40:45.427Z,1.30
2023-01-31T01:41:45.436Z,1.80
2023-01-31T01:42:45.417Z,1.50
2023-01-31T01:43:45.392Z,1.70
2023-01-31T01:44:45.450Z,1.50
2023-01-31T01:45:45.431Z,1.50
2023-01-31T01:46:45.366Z,1.50
2023-01-31T01:47:45.352Z,1.40
2023-01-31T01:48:45.392Z,1.60
2023-01-31T01:49:45.329Z,1.80
2023-01-31T01:50:45.331Z,1.60
2023-01-31T01:51:45.807Z,1.50
2023-01-31T01:52:45.321Z,1.50
2023-01-31T01:53:45.291Z,1.40
2023-01-31T01:54:45.281Z,1.80
2023-01-31T01:55:45.278Z,1.40
2023-01-31T01:56:45.265Z,1.60
2023-01-31T01:57:45.257Z,1.40
2023-01-31T01:58:45.233Z,1.60
2023-01-31T01:59:45.219Z,1.40
2023-01-31T02:00:45.334Z,1.50
2023-01-31T02:01:45.199Z,1.30
2023-01-31T02:02:45.192Z,1.40
2023-01-31T02:03:45.186Z,1.50
2023-01-31T02:04:45.182Z,1.20
2023-01-31T02:05:45.163Z,1.80
2023-01-31T02:06:45.157Z,1.20
2023-01-31T02:07:45.140Z,1.50
2023-01-31T02:08:45.147Z,1.50
2023-01-31T02:09:45.135Z,1.40
2023-01-31T02:10:45.124Z,1.50
2023-01-31T02:11:45.121Z,1.80
2023-01-31T02:12:45.109Z,1.60
2023-01-31T02:13:45.072Z,1.40
2023-01-31T02:14:45.078Z,1.40
2023-01-31T02:15:45.058Z,1.40
2023-01-31T02:16:45.075Z,1.60
2023-01-31T02:17:45.030Z,1.50
2023-01-31T02:18:45.040Z,1.40
2023-01-31T02:19:45.007Z,1.50
2023-01-31T02:20:45.011Z,1.50
2023-01-31T02:21:44.999Z,1.30
2023-01-31T02:22:44.984Z,1.50
2023-01-31T02:23:44.970Z,1.40
2023-01-31T02:24:44.962Z,1.50
2023-01-31T02:25:44.952Z,1.50
2023-01-31T02:26:45.057Z,1.30
2023-01-31T02:27:44.930Z,1.50
2023-01-31T02:28:44.922Z,1.40
2023-01-31T02:29:44.912Z,1.40
2023-01-31T02:30:44.910Z,1.40
2023-01-31T02:31:44.919Z,1.60
2023-01-31T02:32:44.886Z,1.60
2023-01-31T02:33:44.864Z,1.50
2023-01-31T02:34:44.853Z,1.50
2023-01-31T02:35:44.846Z,1.40
2023-01-31T02:36:44.841Z,1.40
2023-01-31T02:37:44.825Z,1.60
2023-01-31T02:38:44.823Z,1.20
2023-01-31T02:39:44.797Z,1.50
2023-01-31T02:40:44.803Z,1.10
2023-01-31T02:41:44.783Z,1.30
2023-01-31T02:42:44.799Z,1.20
2023-01-31T02:43:44.755Z,1.40
2023-01-31T02:44:44.755Z,1.30
2023-01-31T02:45:44.769Z,1.50
2023-01-31T02:46:44.733Z,1.40
2023-01-31T02:47:44.737Z,1.20
2023-01-31T02:48:44.707Z,1.30
2023-01-31T02:49:44.699Z,1.20
2023-01-31T02:50:44.697Z,1.50
2023-01-31T02:51:44.691Z,1.40
2023-01-31T02:52:44.676Z,1.50
2023-01-31T02:53:44.653Z,1.30
2023-01-31T02:54:44.654Z,1.70
2023-01-31T02:55:44.639Z,1.40
2023-01-31T02:56:44.698Z,1.50
2023-01-31T02:57:44.620Z,1.20
2023-01-31T02:58:44.600Z,1.40
2023-01-31T02:59:44.588Z,1.50
2023-01-31T03:00:45.553Z,1.40
2023-01-31T03:01:44.637Z,1.50
2023-01-31T03:02:44.749Z,1.40
2023-01-31T03:03:44.550Z,1.50
2023-01-31T03:04:44.539Z,1.70
2023-01-31T03:05:44.534Z,1.40
2023-01-31T03:06:44.525Z,1.30
2023-01-31T03:07:44.521Z,1.50
2023-01-31T03:08:44.511Z,1.30
2023-01-31T03:09:44.483Z,1.50
2023-01-31T03:10:44.478Z,1.40
2023-01-31T03:11:44.465Z,1.40
2023-01-31T03:12:44.474Z,1.30
2023-01-31T03:13:44.949Z,1.40
2023-01-31T03:14:44.444Z,1.60
2023-01-31T03:15:44.422Z,1.40
2023-01-31T03:16:44.429Z,1.50
2023-01-31T03:17:44.426Z,1.40
2023-01-31T03:18:44.396Z,1.60
2023-01-31T03:19:44.400Z,1.40
2023-01-31T03:20:44.380Z,1.60
2023-01-31T03:21:44.361Z,1.30
2023-01-31T03:22:44.371Z,1.60
2023-01-31T03:23:44.337Z,1.30
2023-01-31T03:24:44.340Z,1.50
2023-01-31T03:25:44.360Z,1.40
2023-01-31T03:26:44.355Z,1.40
2023-01-31T03:27:44.297Z,1.40
2023-01-31T03:28:44.289Z,1.30
2023-01-31T03:29:44.272Z,1.30
2023-01-31T03:30:44.507Z,1.30
2023-01-31T03:31:44.347Z,1.30
2023-01-31T03:32:44.256Z,1.30
2023-01-31T03:33:44.230Z,1.30
2023-01-31T03:34:44.233Z,1.40
2023-01-31T03:35:44.220Z,1.20
2023-01-31T03:36:44.211Z,1.20
2023-01-31T03:37:44.207Z,1.50
2023-01-31T03:38:44.198Z,1.30
2023-01-31T03:39:44.182Z,1.60
2023-01-31T03:40:44.170Z,1.40
2023-01-31T03:41:44.161Z,1.40
2023-01-31T03:42:44.143Z,1.50
2023-01-31T03:43:44.142Z,1.50
2023-01-31T03:44:44.124Z,1.40
2023-01-31T03:45:44.112Z,1.50
2023-01-31T03:46:44.111Z,1.40
2023-01-31T03:47:44.091Z,1.30
2023-01-31T03:48:44.085Z,1.70
2023-01-31T03:49:44.079Z,1.40
2023-01-31T03:50:44.059Z,1.30
2023-01-31T03:51:44.045Z,1.60
2023-01-31T03:52:44.039Z,1.30
2023-01-31T03:53:44.032Z,1.40
2023-01-31T03:54:44.036Z,1.50
2023-01-31T03:55:44.016Z,1.20
2023-01-31T03:56:44.003Z,1.30
2023-01-31T03:57:43.988Z,1.40
2023-01-31T03:58:43.976Z,1.50
2023-01-31T03:59:43.967Z,1.40
2023-01-31T04:00:43.950Z,1.30
2023-01-31T04:01:43.967Z,1.50
2023-01-31T04:02:44.017Z,1.30
2023-01-31T04:03:43.932Z,1.30
2023-01-31T04:04:43.912Z,1.30
2023-01-31T04:05:43.920Z,1.20
2023-01-31T04:06:43.904Z,1.50
2023-01-31T04:07:43.887Z,1.30
2023-01-31T04:08:43.880Z,1.20
2023-01-31T04:09:43.872Z,1.60
2023-01-31T04:10:43.850Z,1.40
2023-01-31T04:11:43.836Z,1.30
2023-01-31T04:12:43.836Z,1.50
2023-01-31T04:13:43.829Z,1.40
2023-01-31T04:14:43.827Z,1.30
2023-01-31T04:15:43.814Z,1.40
2023-01-31T04:16:43.786Z,1.30
2023-01-31T04:17:43.783Z,1.20
2023-01-31T04:18:43.773Z,1.30
2023-01-31T04:19:43.765Z,1.30
2023-01-31T04:20:43.748Z,1.30
2023-01-31T04:21:43.740Z,1.40
2023-01-31T04:22:43.745Z,1.20
2023-01-31T04:23:43.719Z,1.20
2023-01-31T04:24:43.716Z,1.10
2023-01-31T04:25:43.690Z,1.40
2023-01-31T04:26:43.751Z,1.20
2023-01-31T04:27:43.676Z,1.40
2023-01-31T04:28:43.659Z,1.40
2023-01-31T04:29:43.651Z,1.30
2023-01-31T04:30:43.649Z,1.20
2023-01-31T04:31:43.756Z,1.20
2023-01-31T04:32:43.646Z,1.40
2023-01-31T04:33:43.605Z,1.30
2023-01-31T04:34:43.605Z,1.50
2023-01-31T04:35:43.595Z,1.60
2023-01-31T04:36:43.581Z,1.40
2023-01-31T04:37:43.569Z,1.50
2023-01-31T04:38:43.552Z,1.40
2023-01-31T04:39:43.564Z,1.50
2023-01-31T04:40:43.537Z,1.50
2023-01-31T04:41:43.535Z,1.20
2023-01-31T04:42:43.520Z,1.40
2023-01-31T04:43:43.502Z,1.40
2023-01-31T04:44:43.506Z,1.40
2023-01-31T04:45:43.491Z,1.50
2023-01-31T04:46:43.530Z,1.40
2023-01-31T04:47:43.467Z,1.40
2023-01-31T04:48:43.457Z,1.30
2023-01-31T04:49:43.455Z,1.40
2023-01-31T04:50:43.436Z,1.50
2023-01-31T04:51:43.424Z,1.40
2023-01-31T04:52:43.434Z,1.40
2023-01-31T04:53:43.399Z,1.30
2023-01-31T04:54:43.443Z,1.40
2023-01-31T04:55:43.397Z,1.40
2023-01-31T04:56:43.383Z,1.70
2023-01-31T04:57:43.358Z,1.40
2023-01-31T04:58:43.364Z,1.50
2023-01-31T04:59:43.333Z,1.30
2023-01-31T05:00:43.354Z,1.60
2023-01-31T05:01:43.330Z,1.50
2023-01-31T05:02:43.328Z,1.50
2023-01-31T05:03:43.291Z,1.30
2023-01-31T05:04:43.288Z,1.50
2023-01-31T05:05:43.281Z,1.50
2023-01-31T05:06:43.264Z,1.60
2023-01-31T05:07:43.257Z,1.40
2023-01-31T05:08:43.332Z,1.40
2023-01-31T05:09:43.228Z,1.40
2023-01-31T05:10:43.234Z,1.50
2023-01-31T05:11:43.214Z,1.50
2023-01-31T05:12:43.211Z,1.40
2023-01-31T05:13:43.190Z,1.50
2023-01-31T05:14:43.190Z,1.40
2023-01-31T05:15:43.164Z,1.30
2023-01-31T05:16:43.158Z,1.40
2023-01-31T05:17:43.146Z,1.50
2023-01-31T05:18:43.144Z,1.40
2023-01-31T05:19:43.135Z,1.50
2023-01-31T05:20:43.118Z,1.40
2023-01-31T05:21:43.102Z,1.40
2023-01-31T05:22:43.105Z,1.50
2023-01-31T05:23:43.078Z,1.40
2023-01-31T05:24:43.084Z,1.40
2023-01-31T05:25:43.072Z,1.30
2023-01-31T05:26:43.087Z,1.50
2023-01-31T05:27:43.040Z,1.50
2023-01-31T05:28:43.043Z,1.40
2023-01-31T05:29:43.021Z,1.50
2023-01-31T05:30:43.027Z,1.60
2023-01-31T05:31:43.015Z,1.30
2023-01-31T05:32:43.005Z,1.40
2023-01-31T05:33:43.023Z,1.30
2023-01-31T05:34:42.985Z,1.30
2023-01-31T05:35:42.959Z,1.60
2023-01-31T05:36:42.964Z,1.30
2023-01-31T05:37:42.949Z,1.50
2023-01-31T05:38:42.935Z,1.50
2023-01-31T05:39:42.920Z,1.50
2023-01-31T05:40:42.905Z,1.30
2023-01-31T05:41:42.900Z,1.40
2023-01-31T05:42:42.888Z,1.40
2023-01-31T05:43:42.889Z,1.60
2023-01-31T05:44:42.865Z,1.50
2023-01-31T05:45:42.884Z,1.10
2023-01-31T05:46:42.846Z,1.30
2023-01-31T05:47:42.828Z,1.40
2023-01-31T05:48:42.834Z,1.60
2023-01-31T05:49:42.823Z,1.50
2023-01-31T05:50:42.809Z,1.40
2023-01-31T05:51:42.798Z,1.40
2023-01-31T05:52:42.776Z,1.30
2023-01-31T05:53:42.787Z,1.40
2023-01-31T05:54:42.771Z,1.60
2023-01-31T05:55:42.762Z,1.30
2023-01-31T05:56:42.731Z,1.70
2023-01-31T05:57:42.737Z,1.60
2023-01-31T05:58:42.718Z,1.60
2023-01-31T05:59:42.726Z,1.50
2023-01-31T06:00:42.705Z,1.60
2023-01-31T06:01:42.697Z,1.50
2023-01-31T06:02:42.671Z,1.80
2023-01-31T06:03:42.674Z,1.60
2023-01-31T06:04:42.650Z,1.80
2023-01-31T06:05:42.647Z,1.30
2023-01-31T06:06:42.681Z,1.50
2023-01-31T06:07:42.630Z,1.50
2023-01-31T06:08:42.621Z,1.50
2023-01-31T06:09:42.600Z,1.60
2023-01-31T06:10:42.588Z,1.60
2023-01-31T06:11:42.588Z,1.50
2023-01-31T06:12:42.598Z,1.30
2023-01-31T06:13:42.579Z,1.50
2023-01-31T06:14:42.542Z,1.30
2023-01-31T06:15:42.530Z,1.30
2023-01-31T06:16:42.533Z,1.40
2023-01-31T06:17:42.524Z,1.50
2023-01-31T06:18:42.515Z,1.70
2023-01-31T06:19:42.525Z,1.50
2023-01-31T06:20:42.476Z,1.50
2023-01-31T06:21:42.487Z,1.90
2023-01-31T06:22:42.454Z,1.40
2023-01-31T06:23:42.484Z,1.60
2023-01-31T06:24:42.441Z,1.90
2023-01-31T06:25:42.427Z,1.60
2023-01-31T06:26:42.464Z,1.60
2023-01-31T06:27:42.401Z,1.70
2023-01-31T06:28:43.966Z,1.60
2023-01-31T06:29:42.400Z,1.40
2023-01-31T06:30:42.507Z,1.60
2023-01-31T06:31:42.449Z,1.50
2023-01-31T06:32:42.356Z,1.50
2023-01-31T06:33:47.314Z,1.30
2023-01-31T06:34:42.347Z,1.50
2023-01-31T06:35:42.321Z,1.40
2023-01-31T06:36:42.311Z,1.70
2023-01-31T06:37:42.298Z,1.40
2023-01-31T06:38:42.288Z,1.50
2023-01-31T06:39:42.293Z,1.70
2023-01-31T06:40:42.273Z,1.70
2023-01-31T06:41:42.280Z,1.70
2023-01-31T06:42:42.194Z,1.60
2023-01-31T06:43:42.240Z,1.70
2023-01-31T06:44:42.225Z,1.60
2023-01-31T06:45:42.273Z,1.60
2023-01-31T06:46:42.160Z,1.80
2023-01-31T06:47:42.140Z,1.90
2023-01-31T06:48:42.142Z,1.50
2023-01-31T06:49:42.124Z,1.70
2023-01-31T06:50:42.115Z,1.50
2023-01-31T06:51:42.103Z,1.60
2023-01-31T06:52:42.148Z,1.50
2023-01-31T06:53:42.127Z,1.50
2023-01-31T06:54:42.069Z,1.50
2023-01-31T06:55:42.117Z,1.50
2023-01-31T06:56:42.051Z,1.60
2023-01-31T06:57:42.029Z,1.30
2023-01-31T06:58:42.025Z,1.60
2023-01-31T06:59:42.022Z,1.50
2023-01-31T07:00:42.011Z,1.50
2023-01-31T07:01:42.036Z,1.40
2023-01-31T07:02:41.974Z,1.60
2023-01-31T07:03:41.968Z,1.70
2023-01-31T07:04:41.961Z,1.50
2023-01-31T07:05:41.948Z,1.50
2023-01-31T07:06:41.956Z,1.40
2023-01-31T07:07:41.927Z,1.50
2023-01-31T07:08:41.909Z,1.50
2023-01-31T07:09:41.908Z,1.50
2023-01-31T07:10:41.890Z,1.70
2023-01-31T07:11:41.907Z,1.70
2023-01-31T07:12:41.908Z,1.30
2023-01-31T07:13:41.896Z,1.40
2023-01-31T07:14:41.850Z,1.20
2023-01-31T07:15:41.863Z,1.20
2023-01-31T07:16:41.831Z,1.60
2023-01-31T07:17:41.829Z,1.30
2023-01-31T07:18:41.799Z,1.60
2023-01-31T07:19:41.809Z,1.40
2023-01-31T07:20:41.780Z,1.80
2023-01-31T07:21:41.789Z,1.50
2023-01-31T07:22:41.823Z,1.20
2023-01-31T07:23:41.755Z,1.50
2023-01-31T07:24:41.734Z,1.50
2023-01-31T07:25:41.746Z,1.80
2023-01-31T07:26:47.716Z,1.40
2023-01-31T07:27:41.709Z,1.50
2023-01-31T07:28:41.706Z,1.20
2023-01-31T07:29:41.705Z,1.40
2023-01-31T07:30:41.711Z,1.50
2023-01-31T07:31:41.732Z,1.40
2023-01-31T07:32:41.650Z,1.50
2023-01-31T07:33:41.654Z,1.60
2023-01-31T07:34:41.636Z,1.30
2023-01-31T07:35:41.661Z,1.50
2023-01-31T07:36:41.610Z,1.60
2023-01-31T07:37:41.618Z,1.70
2023-01-31T07:38:41.583Z,1.60
2023-01-31T07:39:41.584Z,1.60
2023-01-31T07:40:41.567Z,1.50
2023-01-31T07:41:41.555Z,1.50
2023-01-31T07:42:41.553Z,1.30
2023-01-31T07:43:41.552Z,1.40
2023-01-31T07:44:41.526Z,1.60
2023-01-31T07:45:41.567Z,1.50
2023-01-31T07:46:41.523Z,1.40
2023-01-31T07:47:41.498Z,1.50
2023-01-31T07:48:41.507Z,1.40
2023-01-31T07:49:41.742Z,1.40
2023-01-31T07:50:41.699Z,1.80
2023-01-31T07:51:41.477Z,1.50
2023-01-31T07:52:41.446Z,1.60
2023-01-31T07:53:41.456Z,1.80
2023-01-31T07:54:41.452Z,1.50
2023-01-31T07:55:41.416Z,1.30
2023-01-31T07:56:41.393Z,1.70
2023-01-31T07:57:41.405Z,1.70
2023-01-31T07:58:41.395Z,1.60
2023-01-31T07:59:41.363Z,1.20
2023-01-31T08:00:41.366Z,1.70
2023-01-31T08:01:41.348Z,1.70
2023-01-31T08:02:41.349Z,1.60
2023-01-31T08:03:41.329Z,1.70
2023-01-31T08:04:41.428Z,1.80
2023-01-31T08:05:41.313Z,1.60
2023-01-31T08:06:41.285Z,1.50
2023-01-31T08:07:41.274Z,1.50
2023-01-31T08:08:41.281Z,1.50
2023-01-31T08:09:41.263Z,1.50
2023-01-31T08:10:41.241Z,1.50
2023-01-31T08:11:41.245Z,1.30
2023-01-31T08:12:41.219Z,1.70
2023-01-31T08:13:41.232Z,1.60
2023-01-31T08:14:41.212Z,1.70
2023-01-31T08:15:41.208Z,1.50
2023-01-31T08:16:41.389Z,1.30
2023-01-31T08:17:41.163Z,1.60
2023-01-31T08:18:41.158Z,1.50
2023-01-31T08:19:41.151Z,1.60
2023-01-31T08:20:41.146Z,1.50
2023-01-31T08:21:41.127Z,1.50
2023-01-31T08:22:41.148Z,1.40
2023-01-31T08:23:41.136Z,1.70
2023-01-31T08:24:41.101Z,1.60
2023-01-31T08:25:41.130Z,1.90
2023-01-31T08:26:41.087Z,1.60
2023-01-31T08:27:41.112Z,1.70
2023-01-31T08:28:41.043Z,1.70
2023-01-31T08:29:41.042Z,1.70
2023-01-31T08:30:41.050Z,1.80
2023-01-31T08:31:41.182Z,1.40
2023-01-31T08:32:41.069Z,1.70
2023-01-31T08:33:41.022Z,1.50
2023-01-31T08:34:40.981Z,1.70
2023-01-31T08:35:40.973Z,1.80
2023-01-31T08:36:41.014Z,1.60
2023-01-31T08:37:40.961Z,1.60
2023-01-31T08:38:41.007Z,1.90
2023-01-31T08:39:40.930Z,1.50
2023-01-31T08:40:41.020Z,1.70
2023-01-31T08:41:40.909Z,1.60
2023-01-31T08:42:40.898Z,2.00
2023-01-31T08:43:55.437Z,1.60
2023-01-31T08:44:40.916Z,1.80
2023-01-31T08:45:40.872Z,1.90
2023-01-31T08:46:41.100Z,1.50
2023-01-31T08:47:40.859Z,1.80
2023-01-31T08:48:40.869Z,1.80
2023-01-31T08:49:40.869Z,1.70
2023-01-31T08:50:40.839Z,1.90
2023-01-31T08:51:40.841Z,1.70
2023-01-31T08:52:41.357Z,1.70
2023-01-31T08:53:41.265Z,2.00
2023-01-31T08:54:41.282Z,1.90
2023-01-31T08:55:41.491Z,1.90
2023-01-31T08:56:40.998Z,2.00
2023-01-31T08:57:52.632Z,2.00
2023-01-31T08:58:40.753Z,1.80
2023-01-31T08:59:40.743Z,2.00
2023-01-31T09:00:40.721Z,2.00
2023-01-31T09:01:40.801Z,2.40
2023-01-31T09:02:40.862Z,2.10
2023-01-31T09:03:42.078Z,2.20
2023-01-31T09:04:40.675Z,2.40
2023-01-31T09:05:40.691Z,1.90
2023-01-31T09:06:40.664Z,2.10
2023-01-31T09:07:40.673Z,2.30
2023-01-31T09:08:40.649Z,1.90
2023-01-31T09:09:40.634Z,2.00
2023-01-31T09:10:40.659Z,2.20
2023-01-31T09:11:40.653Z,2.20
2023-01-31T09:12:40.635Z,2.00
2023-01-31T09:13:40.597Z,2.30
2023-01-31T09:14:40.568Z,1.80
2023-01-31T09:15:40.564Z,2.00
2023-01-31T09:16:42.528Z,1.90
2023-01-31T09:17:40.525Z,1.90
2023-01-31T09:18:40.514Z,2.10
2023-01-31T09:19:40.512Z,2.00
2023-01-31T09:20:40.510Z,1.90
2023-01-31T09:21:40.499Z,2.20
2023-01-31T09:22:40.648Z,1.90
2023-01-31T09:23:42.575Z,2.20
2023-01-31T09:24:40.478Z,1.80
2023-01-31T09:25:47.024Z,1.90
2023-01-31T09:26:40.482Z,2.20
2023-01-31T09:27:40.457Z,2.10
2023-01-31T09:28:40.409Z,1.90
2023-01-31T09:29:40.409Z,1.90
2023-01-31T09:30:40.420Z,2.00
2023-01-31T09:31:40.399Z,2.20
2023-01-31T09:32:40.379Z,2.10
2023-01-31T09:33:40.364Z,2.20
2023-01-31T09:34:40.332Z,2.10
2023-01-31T09:35:40.339Z,2.00
2023-01-31T09:36:40.341Z,2.00
2023-01-31T09:37:40.337Z,1.70
2023-01-31T09:38:40.325Z,1.80
2023-01-31T09:39:40.301Z,1.90
2023-01-31T09:40:40.276Z,1.80
2023-01-31T09:41:40.261Z,1.90
2023-01-31T09:42:40.250Z,1.70
2023-01-31T09:43:40.246Z,1.90
2023-01-31T09:44:40.228Z,1.90
2023-01-31T09:45:40.230Z,2.00
2023-01-31T09:46:40.247Z,2.10
2023-01-31T09:47:40.248Z,1.80
2023-01-31T09:48:40.217Z,2.00
2023-01-31T09:49:40.175Z,1.80
2023-01-31T09:50:40.183Z,2.00
2023-01-31T09:51:40.163Z,1.60
2023-01-31T09:52:40.142Z,2.00
2023-01-31T09:53:40.139Z,2.00
2023-01-31T09:54:40.132Z,2.00
2023-01-31T09:55:40.122Z,1.90
2023-01-31T09:56:40.095Z,2.00
2023-01-31T09:57:40.110Z,2.00
2023-01-31T09:58:40.080Z,2.20
2023-01-31T09:59:40.081Z,2.10
2023-01-31T10:00:40.101Z,2.10
2023-01-31T10:01:40.045Z,2.00
2023-01-31T10:02:40.612Z,2.30
2023-01-31T10:03:40.089Z,2.10
2023-01-31T10:04:40.047Z,2.00
2023-01-31T10:05:40.005Z,2.20
2023-01-31T10:06:39.998Z,2.10
2023-01-31T10:07:39.980Z,1.90
2023-01-31T10:08:39.981Z,2.20
2023-01-31T10:09:40.004Z,2.00
2023-01-31T10:10:39.971Z,2.10
2023-01-31T10:11:39.941Z,2.30
2023-01-31T10:12:39.924Z,2.10
2023-01-31T10:13:39.918Z,2.10
2023-01-31T10:14:39.918Z,2.00
2023-01-31T10:15:39.894Z,2.40
2023-01-31T10:16:39.891Z,2.10
2023-01-31T10:17:39.919Z,2.10
2023-01-31T10:18:39.911Z,2.00
2023-01-31T10:19:39.863Z,1.80
2023-01-31T10:20:39.851Z,2.00
2023-01-31T10:21:39.831Z,1.90
2023-01-31T10:22:39.856Z,2.00
2023-01-31T10:23:39.815Z,1.80
2023-01-31T10:24:39.812Z,1.80
2023-01-31T10:25:39.789Z,1.80
2023-01-31T10:26:39.817Z,2.20
2023-01-31T10:27:39.873Z,2.20
2023-01-31T10:28:39.790Z,2.00
2023-01-31T10:29:39.779Z,2.00
2023-01-31T10:30:39.819Z,2.10
2023-01-31T10:31:41.586Z,2.10
2023-01-31T10:32:39.746Z,2.20
2023-01-31T10:33:39.796Z,2.20
2023-01-31T10:34:39.729Z,2.10
2023-01-31T10:35:39.705Z,1.90
2023-01-31T10:36:39.747Z,2.10
2023-01-31T10:37:39.683Z,2.00
2023-01-31T10:38:39.766Z,2.00
2023-01-31T10:39:39.671Z,2.40
2023-01-31T10:40:39.662Z,2.10
2023-01-31T10:41:39.646Z,1.90
2023-01-31T10:42:39.670Z,2.00
2023-01-31T10:43:40.888Z,2.40
2023-01-31T10:44:39.639Z,2.10
2023-01-31T10:45:39.643Z,1.90
2023-01-31T10:46:39.618Z,2.00
2023-01-31T10:47:39.619Z,2.00
2023-01-31T10:48:39.614Z,1.90
2023-01-31T10:49:39.555Z,1.90
2023-01-31T10:50:39.570Z,2.10
2023-01-31T10:51:39.546Z,2.10
2023-01-31T10:52:39.528Z,1.90
2023-01-31T10:53:39.510Z,2.10
2023-01-31T10:54:39.553Z,2.00
2023-01-31T10:55:39.784Z,1.90
2023-01-31T10:56:39.924Z,1.80
2023-01-31T10:57:39.494Z,1.90
2023-01-31T10:58:39.967Z,1.90
2023-01-31T10:59:39.455Z,2.00
2023-01-31T11:00:39.441Z,1.90
2023-01-31T11:01:39.433Z,1.80
2023-01-31T11:02:39.498Z,2.00
2023-01-31T11:03:39.450Z,1.80
2023-01-31T11:04:39.402Z,2.10
2023-01-31T11:05:39.465Z,1.60
2023-01-31T11:06:39.476Z,1.90
2023-01-31T11:07:39.450Z,1.80
2023-01-31T11:08:39.397Z,1.80
2023-01-31T11:09:39.349Z,1.70
2023-01-31T11:10:39.350Z,1.90
2023-01-31T11:11:39.333Z,1.90
2023-01-31T11:12:39.305Z,2.00
2023-01-31T11:13:39.305Z,1.70
2023-01-31T11:14:39.297Z,2.10
2023-01-31T11:15:40.030Z,2.00
2023-01-31T11:16:39.286Z,2.00
2023-01-31T11:17:39.293Z,2.10
2023-01-31T11:18:39.255Z,2.00
2023-01-31T11:19:39.245Z,1.90
2023-01-31T11:20:39.255Z,1.90
2023-01-31T11:21:39.208Z,1.90
2023-01-31T11:22:40.039Z,1.90
2023-01-31T11:23:39.195Z,2.00
2023-01-31T11:24:39.210Z,1.80
2023-01-31T11:25:39.260Z,1.80
2023-01-31T11:26:39.222Z,2.00
2023-01-31T11:27:39.153Z,1.90
2023-01-31T11:28:39.158Z,2.00
2023-01-31T11:29:39.139Z,1.90
2023-01-31T11:30:39.177Z,2.00
2023-01-31T11:31:39.153Z,1.80
2023-01-31T11:32:39.107Z,2.30
2023-01-31T11:33:39.096Z,1.80
2023-01-31T11:34:39.086Z,1.80
2023-01-31T11:35:39.091Z,2.10
2023-01-31T11:36:39.059Z,1.80
2023-01-31T11:37:39.037Z,2.00
2023-01-31T11:38:39.055Z,1.90
2023-01-31T11:39:39.063Z,2.00
2023-01-31T11:40:39.010Z,1.90
2023-01-31T11:41:38.982Z,1.90
2023-01-31T11:42:38.972Z,1.80
2023-01-31T11:43:38.989Z,1.80
2023-01-31T11:44:38.966Z,1.80
2023-01-31T11:45:38.949Z,2.20
2023-01-31T11:46:38.952Z,1.90
2023-01-31T11:47:38.920Z,2.00
2023-01-31T11:48:38.902Z,1.70
2023-01-31T11:49:38.917Z,1.90
2023-01-31T11:50:38.937Z,1.70
2023-01-31T11:51:38.897Z,1.80
2023-01-31T11:52:38.865Z,1.90
2023-01-31T11:53:38.852Z,1.80
2023-01-31T11:54:38.843Z,1.90
2023-01-31T11:55:38.850Z,1.90
2023-01-31T11:56:38.856Z,2.00
2023-01-31T11:57:38.804Z,2.00
2023-01-31T11:58:38.813Z,2.00
2023-01-31T11:59:38.825Z,1.80
2023-01-31T12:00:38.796Z,1.80
2023-01-31T12:01:38.785Z,1.90
2023-01-31T12:02:39.593Z,1.80
2023-01-31T12:03:48.726Z,1.80
2023-01-31T12:04:38.743Z,1.80
2023-01-31T12:05:38.780Z,1.90
2023-01-31T12:06:38.720Z,1.80
2023-01-31T12:07:38.721Z,1.90
2023-01-31T12:08:38.693Z,2.00
2023-01-31T12:09:38.719Z,1.70
2023-01-31T12:10:38.846Z,1.70
2023-01-31T12:11:38.719Z,1.90
2023-01-31T12:12:38.974Z,4.30
2023-01-31T12:13:38.697Z,1.80
2023-01-31T12:14:38.657Z,1.90
2023-01-31T12:15:38.632Z,1.80
2023-01-31T12:16:38.798Z,2.00
2023-01-31T12:17:38.628Z,1.90
2023-01-31T12:18:38.632Z,1.90
2023-01-31T12:19:38.599Z,1.80
2023-01-31T12:20:38.657Z,1.70
2023-01-31T12:21:38.611Z,2.00
2023-01-31T12:22:38.602Z,1.80
2023-01-31T12:23:38.547Z,1.80
2023-01-31T12:24:38.539Z,1.80
2023-01-31T12:25:38.530Z,1.80
2023-01-31T12:26:38.623Z,1.90
2023-01-31T12:27:38.551Z,1.80
2023-01-31T12:28:38.510Z,1.90
2023-01-31T12:29:38.575Z,1.70
2023-01-31T12:30:38.520Z,1.90
2023-01-31T12:31:38.525Z,1.80
2023-01-31T12:32:38.463Z,1.90
2023-01-31T12:33:38.481Z,1.70
2023-01-31T12:34:47.100Z,1.80
2023-01-31T12:35:38.454Z,1.70
2023-01-31T12:36:38.428Z,1.80
2023-01-31T12:37:38.400Z,1.90
2023-01-31T12:38:38.407Z,1.70
2023-01-31T12:39:38.393Z,1.80
2023-01-31T12:40:38.418Z,1.80
2023-01-31T12:41:38.369Z,2.00
2023-01-31T12:42:38.409Z,1.80
2023-01-31T12:43:38.337Z,1.90
2023-01-31T12:44:38.358Z,1.80
2023-01-31T12:45:38.374Z,1.90
2023-01-31T12:46:38.370Z,2.10
2023-01-31T12:47:38.294Z,2.00
2023-01-31T12:48:38.314Z,1.80
2023-01-31T12:49:38.310Z,1.70
2023-01-31T12:50:38.269Z,1.90
2023-01-31T12:51:38.263Z,2.00
2023-01-31T12:52:38.245Z,2.10
2023-01-31T12:53:38.244Z,2.00
2023-01-31T12:54:38.261Z,1.70
2023-01-31T12:55:38.232Z,1.80
2023-01-31T12:56:38.198Z,1.70
2023-01-31T12:57:38.193Z,1.80
2023-01-31T12:58:38.190Z,1.70
2023-01-31T12:59:38.175Z,1.60
2023-01-31T13:00:38.153Z,1.70
2023-01-31T13:01:38.215Z,1.70
2023-01-31T13:02:38.212Z,2.00
2023-01-31T13:03:39.098Z,1.90
2023-01-31T13:04:38.178Z,2.10
2023-01-31T13:05:38.239Z,1.80
2023-01-31T13:06:38.104Z,1.70
2023-01-31T13:07:38.096Z,1.90
2023-01-31T13:08:38.337Z,2.00
2023-01-31T13:09:38.060Z,1.80
2023-01-31T13:10:38.055Z,1.80
2023-01-31T13:11:38.081Z,2.00
2023-01-31T13:12:38.073Z,1.60
2023-01-31T13:13:38.019Z,1.70
2023-01-31T13:14:38.006Z,1.80
2023-01-31T13:15:38.092Z,1.60
2023-01-31T13:16:37.987Z,1.90
2023-01-31T13:17:37.992Z,1.80
2023-01-31T13:18:37.997Z,1.70